Time;durP1;ratioP1;P1;durP2;ratioP2;P2;SDS_P1;SDS_P2;PMS_P1;PMS_P2;Temp;Humidity;BMP_temperature;BMP_pressure;BME280_temperature;BME280_humidity;BME280_pressure;Samples;Min_cycle;Max_cycle;Signal;HPM_P1;HPM_P2
2022/01/07 00:00:34;;;;;;;10.95;4.63;;;;;;;2.80;80.06;101337.78;5029990;28;20312;-72
2022/01/07 00:03:00;;;;;;;9.50;3.75;;;;;;;2.81;79.83;101342.13;5036237;28;20407;-70
2022/01/07 00:05:26;;;;;;;15.07;3.53;;;;;;;2.84;79.53;101331.75;5049449;28;20025;-70
2022/01/07 00:07:51;;;;;;;10.65;3.67;;;;;;;2.87;79.90;101329.16;5048402;28;20423;-70
2022/01/07 00:10:20;;;;;;;11.10;3.60;;;;;;;2.89;79.49;101324.84;5049355;28;20013;-72
2022/01/07 00:12:46;;;;;;;9.50;3.80;;;;;;;2.92;79.56;101327.44;5048417;28;20029;-70
2022/01/07 00:15:11;;;;;;;13.18;3.78;;;;;;;2.92;79.32;101319.63;5039649;28;20211;-70
2022/01/07 00:17:37;;;;;;;8.32;3.65;;;;;;;2.96;78.81;101312.72;5029338;28;20511;-71
2022/01/07 00:20:09;;;;;;;9.70;3.95;;;;;;;2.99;78.63;101305.81;5027050;28;20025;-71
2022/01/07 00:22:35;;;;;;;15.50;3.65;;;;;;;3.00;78.46;101311.88;5029560;28;20324;-69
2022/01/07 00:25:00;;;;;;;14.70;3.33;;;;;;;2.99;78.26;101299.72;5027566;28;20048;-70
2022/01/07 00:27:26;;;;;;;11.02;2.83;;;;;;;3.03;77.80;101312.75;5037653;28;20394;-70
2022/01/07 00:29:51;;;;;;;10.70;3.40;;;;;;;3.05;77.93;101301.47;5048126;28;20056;-70
2022/01/07 00:32:16;;;;;;;13.63;3.13;;;;;;;3.06;78.00;101308.41;5046451;28;20569;-69
2022/01/07 00:34:41;;;;;;;13.88;2.92;;;;;;;3.06;77.92;101300.59;5027088;28;20065;-70
2022/01/07 00:37:07;;;;;;;8.68;2.85;;;;;;;3.01;78.21;101296.25;5029234;28;20069;-70
2022/01/07 00:39:32;;;;;;;16.60;3.38;;;;;;;3.04;78.49;101277.16;5028627;28;20022;-71
2022/01/07 00:41:58;;;;;;;10.10;3.38;;;;;;;3.05;78.41;101275.44;5027202;28;20072;-70
2022/01/07 00:44:23;;;;;;;10.52;3.47;;;;;;;3.03;78.30;101275.44;5026982;28;20448;-69
2022/01/07 00:46:48;;;;;;;11.88;3.67;;;;;;;3.07;77.77;101268.53;5029063;28;20053;-71
2022/01/07 00:49:20;;;;;;;5.85;3.47;;;;;;;3.08;77.74;101273.75;5049504;28;20078;-71
2022/01/07 00:51:46;;;;;;;20.45;3.40;;;;;;;3.11;77.57;101275.47;5047919;28;20028;-70
2022/01/07 00:54:11;;;;;;;6.35;3.08;;;;;;;3.08;78.23;101270.25;5047978;28;20032;-69
2022/01/07 00:56:37;;;;;;;8.10;3.20;;;;;;;3.10;78.60;101266.78;5048782;28;20025;-72
2022/01/07 00:59:02;;;;;;;7.22;3.17;;;;;;;3.12;78.44;101266.78;5046190;28;20048;-69
2022/01/07 01:01:27;;;;;;;11.50;3.50;;;;;;;3.03;78.62;101281.53;5027618;28;20475;-72
2022/01/07 01:03:53;;;;;;;12.38;4.10;;;;;;;3.12;78.98;101264.19;5025427;28;20041;-70
2022/01/07 01:06:18;;;;;;;9.80;3.78;;;;;;;3.12;79.54;101265.06;5026625;28;20072;-69
2022/01/07 01:08:43;;;;;;;11.80;3.83;;;;;;;3.06;80.06;101249.41;5022744;28;20033;-70
2022/01/07 01:11:09;;;;;;;11.85;3.88;;;;;;;2.99;80.65;101253.75;5014535;28;20076;-71
2022/01/07 01:13:34;;;;;;;9.02;3.95;;;;;;;3.00;80.91;101259.78;5046333;28;20025;-70
2022/01/07 01:15:59;;;;;;;13.00;4.65;;;;;;;2.98;81.53;101249.38;5047682;28;20029;-71
2022/01/07 01:18:25;;;;;;;11.43;4.68;;;;;;;2.93;81.73;101258.03;5033993;28;20052;-71
2022/01/07 01:20:51;;;;;;;14.35;4.57;;;;;;;3.00;81.69;101250.25;5026943;28;20025;-69
2022/01/07 01:23:16;;;;;;;9.07;4.80;;;;;;;2.93;81.83;101243.28;5031810;28;20598;-70
2022/01/07 01:25:42;;;;;;;13.88;4.90;;;;;;;2.92;81.96;101246.75;5028748;28;20460;-71
2022/01/07 01:28:07;;;;;;;10.88;4.50;;;;;;;2.94;81.73;101233.72;5026288;28;20577;-69
2022/01/07 01:30:34;;;;;;;13.52;5.63;;;;;;;2.94;82.00;101236.34;5028153;28;20143;-69
2022/01/07 01:33:00;;;;;;;12.20;4.45;;;;;;;2.93;82.00;101229.41;5027929;28;20476;-69
2022/01/07 01:35:25;;;;;;;11.65;4.88;;;;;;;2.98;81.91;101230.31;5040895;28;20035;-70
2022/01/07 01:37:51;;;;;;;16.15;4.70;;;;;;;2.95;81.96;101228.53;5039678;28;20028;-71
2022/01/07 01:40:18;;;;;;;17.95;5.15;;;;;;;2.97;82.03;101219.00;5019120;28;20362;-69
2022/01/07 01:42:45;;;;;;;14.15;5.45;;;;;;;2.91;82.43;101224.19;5015033;28;20385;-72
2022/01/07 01:45:11;;;;;;;17.80;4.72;;;;;;;2.96;81.86;101227.69;5009908;28;20028;-68
2022/01/07 01:47:37;;;;;;;10.57;4.55;;;;;;;2.96;81.64;101217.28;5027778;28;20033;-70
2022/01/07 01:50:04;;;;;;;15.40;5.20;;;;;;;2.97;81.47;101216.41;5026868;28;20360;-70
2022/01/07 01:52:29;;;;;;;14.90;5.20;;;;;;;3.00;81.54;101203.41;5027827;28;20064;-72
2022/01/07 01:54:54;;;;;;;14.45;5.07;;;;;;;3.00;81.49;101213.81;5026442;28;20037;-69
2022/01/07 01:57:20;;;;;;;9.70;4.35;;;;;;;3.05;81.14;101206.03;5039663;28;20028;-72
2022/01/07 01:59:45;;;;;;;8.38;4.90;;;;;;;3.00;81.63;101206.00;5047718;28;20024;-70
2022/01/07 02:02:10;;;;;;;14.88;4.78;;;;;;;3.10;81.18;101201.69;5045774;28;20028;-71
2022/01/07 02:04:38;;;;;;;9.50;5.03;;;;;;;3.15;81.23;101196.50;5047482;28;20053;-69
2022/01/07 02:07:06;;;;;;;14.90;6.00;;;;;;;3.17;81.19;101194.78;5045762;28;20755;-71
2022/01/07 02:09:35;;;;;;;12.27;5.20;;;;;;;3.20;81.25;101188.69;5021102;28;20358;-71
2022/01/07 02:12:05;;;;;;;20.52;6.28;;;;;;;3.18;81.31;101175.66;5021990;28;20063;-70
2022/01/07 02:14:30;;;;;;;8.93;4.85;;;;;;;3.28;81.14;101180.03;5027182;28;20108;-70
2022/01/07 02:17:08;;;;;;;15.98;4.93;;;;;;;3.27;81.21;101174.81;5035747;28;20116;-70
2022/01/07 02:19:35;;;;;;;16.30;6.10;;;;;;;3.31;80.87;101168.75;5014005;28;20140;-71
2022/01/07 02:22:01;;;;;;;12.05;5.30;;;;;;;3.31;81.15;101163.53;5026019;28;20036;-70
2022/01/07 02:24:26;;;;;;;13.88;5.65;;;;;;;3.28;81.29;101174.81;5028989;28;20025;-70
2022/01/07 02:26:52;;;;;;;11.90;5.30;;;;;;;3.31;81.18;101167.88;5046162;28;20029;-68
2022/01/07 02:29:17;;;;;;;16.60;6.10;;;;;;;3.37;81.06;101175.72;5044997;28;20021;-69
2022/01/07 02:31:42;;;;;;;8.80;5.28;;;;;;;3.36;81.37;101179.16;5047347;28;20070;-70
2022/01/07 02:34:08;;;;;;;12.30;5.72;;;;;;;3.36;81.29;101169.63;5030112;28;20020;-69
2022/01/07 02:36:33;;;;;;;11.75;6.05;;;;;;;3.39;81.36;101168.75;5037994;28;20300;-67
2022/01/07 02:38:58;;;;;;;8.15;5.30;;;;;;;3.38;81.60;101170.50;5022495;28;20519;-69
2022/01/07 02:41:24;;;;;;;13.80;6.15;;;;;;;3.36;81.90;101171.34;5022686;28;20049;-68
2022/01/07 02:43:49;;;;;;;13.73;6.40;;;;;;;3.23;82.63;101162.66;5042471;28;20104;-69
2022/01/07 02:46:14;;;;;;;11.82;5.85;;;;;;;3.23;82.33;101157.44;5028440;28;20057;-67
2022/01/07 02:48:40;;;;;;;10.07;5.78;;;;;;;3.20;82.81;101152.22;5024036;28;20025;-68
2022/01/07 02:51:05;;;;;;;16.17;5.80;;;;;;;3.19;82.52;101153.97;5016878;28;20549;-69
2022/01/07 02:53:30;;;;;;;9.65;5.97;;;;;;;3.22;82.48;101156.56;5035264;28;20025;-68
2022/01/07 02:55:56;;;;;;;8.52;5.80;;;;;;;3.17;82.52;101150.50;5044990;28;20028;-68
2022/01/07 02:58:21;;;;;;;11.98;5.97;;;;;;;3.19;83.01;101146.16;5044898;28;20021;-67
2022/01/07 03:00:46;;;;;;;13.95;5.88;;;;;;;3.18;82.85;101143.53;5045594;28;20112;-66
2022/01/07 03:03:12;;;;;;;10.77;6.53;;;;;;;3.23;82.47;101134.00;5047042;28;20124;-67
2022/01/07 03:05:41;;;;;;;9.02;6.10;;;;;;;3.26;82.45;101129.69;5045166;28;20033;-65
2022/01/07 03:08:06;;;;;;;10.80;7.03;;;;;;;3.26;82.95;101137.50;5038257;28;20396;-68
2022/01/07 03:10:33;;;;;;;13.50;7.72;;;;;;;3.23;83.38;101127.06;5023695;28;20034;-67
2022/01/07 03:13:00;;;;;;;15.32;7.15;;;;;;;3.33;83.05;101133.16;5011285;28;20033;-65
2022/01/07 03:15:26;;;;;;;14.93;8.45;;;;;;;3.34;83.38;101123.63;5027348;28;20044;-67
2022/01/07 03:17:51;;;;;;;11.30;8.02;;;;;;;3.35;83.19;101121.00;5044623;28;20021;-66
2022/01/07 03:20:18;;;;;;;12.88;7.25;;;;;;;3.44;83.01;101133.16;5045390;28;20466;-66
2022/01/07 03:22:45;;;;;;;13.18;8.13;;;;;;;3.46;83.05;101118.38;5044677;28;20024;-66
2022/01/07 03:25:11;;;;;;;14.80;8.48;;;;;;;3.47;83.33;101121.88;5045366;28;20131;-67
2022/01/07 03:27:37;;;;;;;17.20;9.23;;;;;;;3.45;83.40;101111.44;5045664;28;20515;-67
2022/01/07 03:30:04;;;;;;;15.80;7.40;;;;;;;3.51;83.49;101114.06;5044947;28;20017;-66
2022/01/07 03:32:29;;;;;;;15.85;8.35;;;;;;;3.49;83.88;101102.75;5039381;28;20455;-66
2022/01/07 03:34:54;;;;;;;13.68;7.72;;;;;;;3.50;83.84;101099.31;5026078;28;20029;-66
2022/01/07 03:37:20;;;;;;;16.15;8.13;;;;;;;3.49;83.87;101092.34;5037079;28;20018;-67
2022/01/07 03:39:46;;;;;;;16.27;8.75;;;;;;;3.49;83.87;101089.72;5022797;28;20017;-68
2022/01/07 03:42:12;;;;;;;16.58;8.80;;;;;;;3.53;83.86;101088.00;5015306;28;20067;-66
2022/01/07 03:44:37;;;;;;;16.85;8.88;;;;;;;3.57;83.74;101081.91;5026114;28;20018;-66
2022/01/07 03:47:03;;;;;;;15.30;8.48;;;;;;;3.60;83.63;101073.22;5025030;28;20013;-66
2022/01/07 03:49:29;;;;;;;12.65;7.95;;;;;;;3.63;83.84;101070.63;5015693;28;20034;-67
2022/01/07 03:51:54;;;;;;;11.93;7.88;;;;;;;3.62;83.61;101071.50;5021042;28;20033;-67
2022/01/07 03:54:19;;;;;;;15.30;7.78;;;;;;;3.67;83.48;101061.91;5026298;28;20544;-66
2022/01/07 03:56:45;;;;;;;11.23;7.72;;;;;;;3.68;83.60;101058.47;5025248;28;20388;-67
2022/01/07 03:59:10;;;;;;;12.90;7.95;;;;;;;3.70;83.44;101050.63;5024266;28;20017;-67
2022/01/07 04:01:35;;;;;;;13.43;7.57;;;;;;;3.72;83.45;101047.16;5024914;28;20071;-67
2022/01/07 04:04:01;;;;;;;15.07;7.97;;;;;;;3.76;83.33;101028.03;5026931;28;20041;-67
2022/01/07 04:06:26;;;;;;;12.95;7.57;;;;;;;3.73;83.42;101030.63;5044263;28;20048;-67
2022/01/07 04:08:51;;;;;;;16.33;8.30;;;;;;;3.70;83.52;101035.00;5045086;28;20108;-67
2022/01/07 04:11:17;;;;;;;13.60;8.27;;;;;;;3.70;83.67;101027.19;5033057;28;20487;-66
2022/01/07 04:13:44;;;;;;;14.45;8.32;;;;;;;3.71;83.21;101032.41;5014155;28;20526;-66
2022/01/07 04:16:10;;;;;;;17.88;8.73;;;;;;;3.71;83.54;101047.16;5021990;28;20025;-65
2022/01/07 04:18:36;;;;;;;12.52;8.02;;;;;;;3.70;83.52;101035.00;5044764;28;20132;-66
2022/01/07 04:21:02;;;;;;;16.60;8.25;;;;;;;3.66;83.73;101049.75;5032280;28;20105;-66
2022/01/07 04:23:28;;;;;;;13.32;7.97;;;;;;;3.67;83.77;101043.66;5014615;28;20054;-65
2022/01/07 04:25:53;;;;;;;16.00;8.18;;;;;;;3.66;83.92;101039.34;5006015;28;20065;-67
2022/01/07 04:28:19;;;;;;;19.77;7.95;;;;;;;3.67;83.91;101028.91;5035817;28;20481;-66
2022/01/07 04:30:45;;;;;;;13.98;7.03;;;;;;;3.69;83.82;101031.50;5043716;28;20552;-67
2022/01/07 04:33:14;;;;;;;14.00;8.13;;;;;;;3.71;83.78;101021.09;5044656;28;20109;-67
2022/01/07 04:35:40;;;;;;;12.98;8.20;;;;;;;3.73;83.80;101025.41;5045815;28;20525;-67
2022/01/07 04:38:06;;;;;;;20.60;9.05;;;;;;;3.73;83.63;101021.97;5046196;28;20044;-66
2022/01/07 04:40:32;;;;;;;15.57;8.43;;;;;;;3.74;84.01;101028.91;5048278;28;20044;-66
2022/01/07 04:42:58;;;;;;;16.70;8.25;;;;;;;3.67;84.44;101025.44;5040019;28;20022;-66
2022/01/07 04:45:23;;;;;;;15.73;7.85;;;;;;;3.67;84.36;101028.03;5018831;28;20038;-68
2022/01/07 04:47:48;;;;;;;15.38;8.25;;;;;;;3.69;84.23;101020.22;5020139;28;20635;-67
2022/01/07 04:50:16;;;;;;;13.77;7.85;;;;;;;3.73;84.09;101017.59;5027832;28;20045;-65
2022/01/07 04:52:44;;;;;;;12.35;8.25;;;;;;;3.77;83.92;101026.28;5024300;28;20030;-66
2022/01/07 04:55:10;;;;;;;14.68;8.35;;;;;;;3.81;83.98;101019.31;5009068;28;20034;-67
2022/01/07 04:57:36;;;;;;;13.80;8.07;;;;;;;3.79;83.96;101029.75;5009762;28;20033;-68
2022/01/07 05:00:04;;;;;;;13.00;7.00;;;;;;;3.78;84.25;101021.06;5048725;28;20383;-67
2022/01/07 05:02:29;;;;;;;18.80;8.88;;;;;;;3.82;84.37;101028.88;5046237;28;20379;-68
2022/01/07 05:04:55;;;;;;;20.35;7.95;;;;;;;3.85;84.06;101026.28;5017779;28;20038;-66
2022/01/07 05:07:20;;;;;;;11.93;7.28;;;;;;;3.86;83.91;101015.84;5030072;28;20056;-66
2022/01/07 05:09:45;;;;;;;19.55;8.10;;;;;;;3.85;84.31;101008.03;5034456;28;20048;-67
2022/01/07 05:12:11;;;;;;;18.02;7.82;;;;;;;3.94;84.10;101015.78;5027719;28;20505;-66
2022/01/07 05:14:36;;;;;;;25.48;8.35;;;;;;;4.02;83.99;101010.56;5021259;28;20472;-66
2022/01/07 05:17:02;;;;;;;14.55;7.32;;;;;;;4.09;83.55;101014.88;5023639;28;20033;-66
2022/01/07 05:19:27;;;;;;;14.68;7.40;;;;;;;4.14;83.67;101020.06;5044669;28;20020;-67
2022/01/07 05:21:52;;;;;;;17.23;7.78;;;;;;;4.21;83.27;101019.16;5048006;28;20264;-67
2022/01/07 05:24:18;;;;;;;15.68;7.03;;;;;;;4.24;83.39;101021.78;5035974;28;20055;-67
2022/01/07 05:26:43;;;;;;;11.80;6.72;;;;;;;4.22;83.54;101026.16;5028061;28;20026;-66
2022/01/07 05:29:08;;;;;;;12.90;7.15;;;;;;;4.25;83.25;101028.72;5023972;28;20388;-66
2022/01/07 05:31:34;;;;;;;10.85;5.97;;;;;;;4.29;83.52;101038.28;5028274;28;20680;-66
2022/01/07 05:33:59;;;;;;;14.18;7.07;;;;;;;4.30;83.38;101044.34;5027268;28;20032;-66
2022/01/07 05:36:25;;;;;;;11.07;6.90;;;;;;;4.37;82.80;101042.59;5028246;28;20026;-67
2022/01/07 05:38:51;;;;;;;17.75;7.15;;;;;;;4.33;83.20;101039.13;5027949;28;20045;-66
2022/01/07 05:41:16;;;;;;;10.75;6.93;;;;;;;4.36;83.20;101040.88;5042152;28;20035;-66
2022/01/07 05:43:41;;;;;;;14.25;7.18;;;;;;;4.28;83.27;101031.31;5047972;28;20021;-67
2022/01/07 05:46:13;;;;;;;15.70;7.45;;;;;;;4.31;83.26;101025.22;5036247;28;20453;-66
2022/01/07 05:48:39;;;;;;;15.68;7.90;;;;;;;4.32;83.41;101028.69;5019519;28;20029;-68
2022/01/07 05:51:05;;;;;;;13.57;6.28;;;;;;;4.32;82.93;101020.84;5025098;28;20075;-68
2022/01/07 05:53:30;;;;;;;11.90;7.30;;;;;;;4.29;83.15;101027.84;5027834;28;20064;-67
2022/01/07 05:55:55;;;;;;;17.58;8.10;;;;;;;4.28;83.43;101036.53;5026793;28;20060;-67
2022/01/07 05:58:21;;;;;;;26.58;7.90;;;;;;;4.34;83.36;101024.34;5007554;28;20060;-68
2022/01/07 06:00:46;;;;;;;18.60;7.63;;;;;;;4.34;83.44;101021.72;5016727;28;20029;-68
2022/01/07 06:03:11;;;;;;;19.02;8.30;;;;;;;4.37;83.48;101024.34;5037619;28;20442;-68
2022/01/07 06:05:37;;;;;;;16.30;8.40;;;;;;;4.39;83.20;101027.78;5031066;28;20087;-68
2022/01/07 06:08:02;;;;;;;16.50;8.30;;;;;;;4.40;83.25;101030.38;5025578;28;20021;-68
2022/01/07 06:10:27;;;;;;;14.13;9.05;;;;;;;4.37;83.46;101034.75;5007408;28;20026;-66
2022/01/07 06:12:53;;;;;;;12.73;8.20;;;;;;;4.42;83.06;101025.16;5006915;28;20025;-67
2022/01/07 06:15:18;;;;;;;20.08;8.30;;;;;;;4.50;82.78;101026.00;5007782;28;20026;-66
2022/01/07 06:17:43;;;;;;;14.55;8.57;;;;;;;4.51;82.77;101027.72;5010428;28;20455;-67
2022/01/07 06:20:09;;;;;;;12.10;7.82;;;;;;;4.52;82.98;101028.59;5012607;28;20058;-67
2022/01/07 06:22:35;;;;;;;17.15;8.82;;;;;;;4.58;82.69;101035.53;5011595;28;20116;-68
2022/01/07 06:25:01;;;;;;;24.33;10.45;;;;;;;4.55;82.65;101034.66;5006226;28;20106;-67
2022/01/07 06:27:27;;;;;;;16.88;8.88;;;;;;;4.60;82.88;101025.97;5021934;28;20021;-67
2022/01/07 06:29:52;;;;;;;21.98;10.90;;;;;;;4.61;82.67;101028.53;5011771;28;20040;-68
2022/01/07 06:32:17;;;;;;;20.58;10.27;;;;;;;4.71;82.47;101031.97;5005288;28;20384;-69
2022/01/07 06:34:43;;;;;;;18.65;11.18;;;;;;;4.67;82.60;101028.50;5017619;28;20108;-68
2022/01/07 06:37:08;;;;;;;19.33;10.35;;;;;;;4.60;82.69;101018.97;5027184;28;20072;-67
2022/01/07 06:39:34;;;;;;;25.00;11.13;;;;;;;4.65;82.49;101013.72;5020221;28;20101;-69
2022/01/07 06:42:00;;;;;;;26.33;11.73;;;;;;;4.61;82.86;101027.69;5015939;28;20218;-68
2022/01/07 06:44:26;;;;;;;26.58;11.55;;;;;;;4.60;82.91;101021.59;5020846;28;20033;-65
2022/01/07 06:46:52;;;;;;;23.60;10.77;;;;;;;4.63;82.76;101037.22;5045923;28;20025;-69
2022/01/07 06:49:17;;;;;;;22.27;11.57;;;;;;;4.61;82.66;101031.13;5025656;28;20075;-68
2022/01/07 06:51:43;;;;;;;23.27;11.52;;;;;;;4.62;82.80;101040.72;5021303;28;20017;-69
2022/01/07 06:54:11;;;;;;;30.15;12.63;;;;;;;4.52;83.14;101037.28;5007455;28;20026;-70
2022/01/07 06:56:41;;;;;;;23.25;11.88;;;;;;;4.48;83.06;101025.13;5024623;28;20044;-69
2022/01/07 06:59:07;;;;;;;18.33;10.90;;;;;;;4.47;82.97;101033.84;5046327;28;20043;-69
2022/01/07 07:01:32;;;;;;;19.60;11.68;;;;;;;4.40;83.42;101034.75;5044595;28;20527;-70
2022/01/07 07:03:57;;;;;;;23.00;11.48;;;;;;;4.37;83.65;101033.00;5046409;28;20079;-70
2022/01/07 07:06:23;;;;;;;21.55;11.68;;;;;;;4.34;83.86;101021.72;5044152;28;20036;-70
2022/01/07 07:08:48;;;;;;;23.40;11.77;;;;;;;4.27;83.81;101024.38;5013417;28;20419;-67
2022/01/07 07:11:13;;;;;;;22.02;12.02;;;;;;;4.23;84.11;101020.03;4994241;28;20453;-69
2022/01/07 07:13:39;;;;;;;29.52;11.77;;;;;;;4.23;84.60;101014.81;5040203;28;20033;-69
2022/01/07 07:16:04;;;;;;;23.52;11.65;;;;;;;4.21;84.30;101020.94;5026008;28;20051;-69
2022/01/07 07:18:30;;;;;;;25.02;12.35;;;;;;;4.09;84.40;101009.66;5024418;28;20017;-69
2022/01/07 07:20:55;;;;;;;22.33;11.40;;;;;;;4.06;84.57;101008.81;5026002;28;20492;-69
2022/01/07 07:23:20;;;;;;;27.80;14.38;;;;;;;4.00;84.87;101014.94;5025549;28;20447;-71
2022/01/07 07:25:46;;;;;;;23.67;12.27;;;;;;;3.99;84.95;101019.28;5025721;28;20023;-69
2022/01/07 07:28:11;;;;;;;20.17;11.25;;;;;;;4.00;84.94;101015.78;5023740;28;20187;-70
2022/01/07 07:30:39;;;;;;;25.77;11.02;;;;;;;4.01;84.47;101011.44;5024988;28;20025;-67
2022/01/07 07:38:33;;;;;;;26.05;9.75;;;;;;;4.09;84.14;101004.44;5026977;28;20040;-67
2022/01/07 07:40:59;;;;;;;18.95;9.57;;;;;;;4.06;83.96;101003.59;5022686;28;20384;-66
2022/01/07 07:43:24;;;;;;;21.98;8.48;;;;;;;4.01;84.52;101007.06;5027363;28;20029;-66
2022/01/07 07:45:49;;;;;;;24.20;9.52;;;;;;;4.01;84.52;101012.28;5027595;28;20022;-69
2022/01/07 07:48:15;;;;;;;17.58;8.98;;;;;;;4.05;84.64;101015.78;5022074;28;20017;-68
2022/01/07 07:50:40;;;;;;;15.13;7.00;;;;;;;4.06;84.51;101024.47;5026069;28;20013;-66
2022/01/07 07:53:05;;;;;;;23.40;8.43;;;;;;;4.10;84.20;101026.19;5021300;28;20028;-66
2022/01/07 07:55:31;;;;;;;17.17;7.28;;;;;;;4.11;84.03;101022.69;5025026;28;20049;-66
2022/01/07 07:57:56;;;;;;;16.60;7.10;;;;;;;4.04;83.83;101022.72;5024260;28;20434;-67
2022/01/07 08:00:22;;;;;;;19.05;7.05;;;;;;;4.03;83.91;101031.41;5025654;28;20068;-67
2022/01/07 08:02:47;;;;;;;11.70;5.90;;;;;;;3.95;84.16;101021.91;5025341;28;20112;-69
2022/01/07 08:05:12;;;;;;;17.75;5.45;;;;;;;3.90;84.64;101029.72;5025775;28;20034;-72
2022/01/07 08:07:38;;;;;;;16.33;6.07;;;;;;;3.87;84.38;101027.13;5025524;28;20125;-72
2022/01/07 08:10:04;;;;;;;14.43;6.25;;;;;;;3.85;84.51;101034.09;5025775;28;20811;-73
2022/01/07 08:12:51;;;;;;;18.42;5.85;;;;;;;3.85;84.40;101036.72;5026561;28;20060;-70
2022/01/07 08:17:58;;;;;;;19.00;5.75;;;;;;;3.86;84.17;101038.44;5042178;28;20087;-66
2022/01/07 08:20:24;;;;;;;16.08;6.32;;;;;;;3.79;84.31;101037.56;5000102;28;20025;-70
2022/01/07 08:22:49;;;;;;;14.68;6.07;;;;;;;3.84;84.62;101027.13;5009723;28;20372;-68
2022/01/07 08:25:14;;;;;;;15.13;5.90;;;;;;;3.94;84.28;101035.81;5025275;28;20065;-64
2022/01/07 08:27:40;;;;;;;19.58;7.05;;;;;;;3.99;84.00;101029.69;5025006;28;20479;-67
2022/01/07 08:30:22;;;;;;;13.73;6.57;;;;;;;4.04;83.62;101030.53;5026226;28;20025;-66
2022/01/07 08:35:31;;;;;;;12.82;6.03;;;;;;;4.09;83.44;101033.13;5013369;28;20139;-70
2022/01/07 08:37:57;;;;;;;19.05;5.80;;;;;;;4.08;83.48;101025.31;5010551;28;20026;-66
2022/01/07 08:40:22;;;;;;;17.83;6.35;;;;;;;4.08;83.33;101023.59;5046757;28;20435;-66
2022/01/07 08:42:47;;;;;;;10.00;5.63;;;;;;;4.12;83.06;101024.44;5047184;28;20044;-67
2022/01/07 08:45:13;;;;;;;15.10;6.35;;;;;;;4.13;83.07;101018.34;5047203;28;20021;-63
2022/01/07 08:47:38;;;;;;;21.85;6.10;;;;;;;4.12;83.05;101016.63;5027018;28;20076;-63
2022/01/07 08:50:04;;;;;;;14.82;5.13;;;;;;;4.17;83.17;101028.78;5020138;28;20546;-65
2022/01/07 08:52:29;;;;;;;15.57;5.90;;;;;;;4.20;82.82;101020.06;5026598;28;20423;-65
2022/01/07 08:54:55;;;;;;;15.20;6.32;;;;;;;4.21;82.87;101027.00;5017747;28;20022;-69
2022/01/07 08:57:20;;;;;;;12.32;5.30;;;;;;;4.34;82.58;101021.72;5008573;28;20053;-69
2022/01/07 08:59:47;;;;;;;18.48;5.10;;;;;;;4.46;82.42;101018.19;5027748;28;20025;-70
2022/01/07 09:02:13;;;;;;;12.93;5.32;;;;;;;4.66;81.73;101011.09;5028420;28;20432;-69
2022/01/07 09:04:38;;;;;;;16.42;4.93;;;;;;;4.83;81.11;101015.34;5026663;28;20056;-70
2022/01/07 09:07:03;;;;;;;21.13;5.03;;;;;;;5.02;80.11;101008.25;5006798;28;21184;-69
2022/01/07 09:09:29;;;;;;;11.32;4.78;;;;;;;5.23;79.67;101006.31;5003869;28;20021;-68
2022/01/07 09:11:54;;;;;;;11.18;4.43;;;;;;;5.33;79.35;101006.25;5004746;28;20018;-68
2022/01/07 09:14:20;;;;;;;14.45;4.25;;;;;;;5.37;79.15;101008.81;4986480;28;20385;-69
2022/01/07 09:16:45;;;;;;;11.50;4.03;;;;;;;5.31;80.13;100991.47;4985834;28;20022;-68
2022/01/07 09:19:10;;;;;;;23.42;4.55;;;;;;;5.46;79.12;100999.16;4985809;28;20018;-68
2022/01/07 09:21:36;;;;;;;13.07;4.03;;;;;;;5.54;78.99;100999.94;4992212;28;20017;-68
2022/01/07 09:24:01;;;;;;;13.35;3.90;;;;;;;5.62;78.33;101002.47;5002965;28;20030;-69
2022/01/07 09:26:26;;;;;;;12.82;4.53;;;;;;;5.45;79.04;101003.53;5003992;28;20222;-68
2022/01/07 09:28:52;;;;;;;11.88;3.83;;;;;;;5.47;78.77;101003.47;4994027;28;20034;-69
2022/01/07 09:31:17;;;;;;;12.05;4.05;;;;;;;5.42;78.83;101009.63;4986286;28;20057;-68
2022/01/07 09:33:43;;;;;;;8.55;3.65;;;;;;;5.50;78.48;101000.84;5001409;28;20053;-67
2022/01/07 09:36:08;;;;;;;13.50;3.75;;;;;;;5.54;78.28;101006.03;5003881;28;20388;-68
2022/01/07 09:38:33;;;;;;;13.93;3.42;;;;;;;5.62;77.88;101018.16;5002519;28;20060;-68
2022/01/07 09:40:59;;;;;;;18.45;3.75;;;;;;;5.68;77.71;101005.00;5004137;28;20105;-68
2022/01/07 09:43:25;;;;;;;14.60;4.07;;;;;;;5.68;78.06;101007.63;5004401;28;20558;-68
2022/01/07 09:45:51;;;;;;;11.80;3.75;;;;;;;5.65;77.86;101002.44;5004328;28;20032;-69
2022/01/07 09:48:16;;;;;;;15.77;4.15;;;;;;;5.46;78.07;100999.16;5004459;28;20128;-69
2022/01/07 09:50:42;;;;;;;14.43;3.78;;;;;;;5.40;78.52;101013.16;5003167;28;20151;-67
2022/01/07 09:53:12;;;;;;;11.27;3.63;;;;;;;5.40;78.27;101007.91;5003334;28;20077;-68
2022/01/07 09:55:38;;;;;;;14.45;3.65;;;;;;;5.40;78.42;101008.78;5011892;28;20044;-67
2022/01/07 09:58:04;;;;;;;13.02;4.32;;;;;;;5.38;78.45;101009.66;5014773;28;20479;-69
2022/01/07 10:00:37;;;;;;;15.43;4.50;;;;;;;5.56;77.84;101014.72;5003410;28;20067;-67
2022/01/07 10:03:08;;;;;;;15.20;4.40;;;;;;;5.63;78.01;101006.84;4986957;28;20041;-67
2022/01/07 10:05:49;;;;;;;10.90;4.65;;;;;;;5.76;77.39;101016.28;5002761;28;20102;-68
2022/01/07 10:08:25;;;;;;;13.93;4.18;;;;;;;5.78;77.09;101014.50;5003209;28;20029;-67
2022/01/07 10:11:14;;;;;;;9.45;3.00;;;;;;;5.69;75.02;101014.63;5003434;28;20060;-68
2022/01/07 10:13:51;;;;;;;12.13;4.55;;;;;;;5.66;76.15;101012.03;5003350;28;20034;-68
2022/01/07 10:16:19;;;;;;;18.38;4.45;;;;;;;5.66;77.22;101012.03;5024081;28;20051;-68
2022/01/07 10:18:45;;;;;;;7.90;3.20;;;;;;;5.74;76.46;101027.59;5034609;28;20037;-66
2022/01/07 10:21:11;;;;;;;12.35;3.72;;;;;;;5.89;76.59;101023.97;5003377;28;20009;-67
2022/01/07 10:23:36;;;;;;;8.25;2.75;;;;;;;5.97;76.01;101010.81;5003670;28;20388;-68
2022/01/07 10:26:03;;;;;;;13.77;3.90;;;;;;;5.97;74.72;101014.28;4994211;28;20475;-70
2022/01/07 10:28:31;;;;;;;14.23;4.78;;;;;;;6.09;74.42;101012.44;5006296;28;20104;-68
2022/01/07 10:30:56;;;;;;;8.27;3.55;;;;;;;6.15;75.14;101014.97;5002771;28;20026;-69
2022/01/07 10:33:22;;;;;;;19.63;4.15;;;;;;;6.37;75.33;101009.44;5002969;28;20021;-67
2022/01/07 10:35:49;;;;;;;12.85;4.30;;;;;;;6.41;75.76;101008.56;4997436;28;20185;-67
2022/01/07 10:38:16;;;;;;;9.30;3.35;;;;;;;6.59;74.12;101009.16;4979745;28;20022;-69
2022/01/07 10:40:42;;;;;;;8.90;3.75;;;;;;;6.74;74.37;101001.06;4993972;28;20372;-71
2022/01/07 10:43:16;;;;;;;10.82;3.75;;;;;;;6.89;73.96;101009.59;4999800;28;20030;-72
2022/01/07 10:45:45;;;;;;;18.45;4.18;;;;;;;7.02;73.24;101005.91;4984912;28;20022;-70
2022/01/07 10:48:12;;;;;;;19.55;4.68;;;;;;;7.06;72.64;100999.72;4988284;28;20435;-58
2022/01/07 10:50:43;;;;;;;12.75;3.35;;;;;;;7.13;72.42;100995.22;5018604;28;20047;-67
2022/01/07 10:53:28;;;;;;;8.75;3.50;;;;;;;7.15;71.97;101005.66;5023175;28;20059;-67
2022/01/07 10:56:15;;;;;;;10.27;3.17;;;;;;;6.91;72.13;100992.97;5013511;28;20086;-70
2022/01/07 10:58:43;;;;;;;14.60;3.67;;;;;;;6.92;72.33;100996.44;4996833;28;20043;-71
2022/01/07 11:01:25;;;;;;;14.20;3.65;;;;;;;6.94;72.49;100994.66;5001652;28;20022;-69
2022/01/07 11:03:53;;;;;;;18.50;4.07;;;;;;;6.90;71.47;100995.59;5001089;28;20037;-71
2022/01/07 11:06:19;;;;;;;15.68;3.22;;;;;;;6.81;72.39;100994.84;4999482;28;20490;-67
2022/01/07 11:08:50;;;;;;;16.00;3.55;;;;;;;6.81;72.56;100994.84;5000936;28;20491;-74
2022/01/07 11:11:15;;;;;;;14.60;3.17;;;;;;;6.74;71.92;100998.44;5001059;28;20484;-73
2022/01/07 11:13:41;;;;;;;15.50;3.35;;;;;;;6.63;72.50;100993.41;5013434;28;20017;-71
2022/01/07 11:16:06;;;;;;;19.85;2.78;;;;;;;6.61;72.22;100999.53;5004655;28;20041;-68
2022/01/07 11:18:39;;;;;;;13.63;2.75;;;;;;;6.46;73.28;101006.72;5007172;28;20037;-66
2022/01/07 11:21:05;;;;;;;10.73;2.25;;;;;;;6.42;72.60;100997.19;5004114;28;20660;-67
2022/01/07 11:23:31;;;;;;;12.98;2.67;;;;;;;6.43;72.77;101009.38;5002888;28;20025;-68
2022/01/07 11:26:06;;;;;;;10.80;2.45;;;;;;;6.34;73.51;101007.75;4985259;28;20025;-66
2022/01/07 11:28:32;;;;;;;15.63;3.20;;;;;;;6.29;74.05;101026.13;4982567;28;20053;-68
2022/01/07 11:31:12;;;;;;;14.90;1.92;;;;;;;6.18;67.73;101010.56;4988297;28;20033;-69